New Nada — 3ELP9 — position and weather

sailwx.info

Track history (hours):
 
Tides and Currents Weather Stations Pressure Air Temp Water Temp Dewpoint Dewpoint Depression Visibility Wind Speed Wind Dir Waves Ship Positions

New Nada

Last reported at 2014-Oct-25 04:32 UTC. Time now 2014-Nov-24 16:04 UTC.
Position N 39°21' W 073°51'.
Warning: this ship's position is 30 days out of date.

Length 180 m; beam 32.2 m.

Type: Cargo ship. MMSI: 356005000.

Date/timePositionNaut miles runAvg speedWind from/ knotsBaromVisibWave heightAir tempDewpointWater temp
2014-Oct-25 04:32N 39°21' W 073°51'1818.0
2014-Oct-25 03:33N 39°39' W 073°51'1817.8
2014-Oct-25 02:33N 39°57' W 073°50'1917.4
2014-Oct-25 01:29N 40°15' W 073°49'1213.1
2014-Oct-25 00:33N 40°27' W 073°50'1212.4
2014-Oct-24 23:33N 40°36' W 074°03'6 6.0
2014-Oct-24 22:33N 40°39' W 074°09'2 2.1
2014-Oct-24 21:31N 40°41' W 074°08'0 0.0
2014-Oct-24 20:31N 40°41' W 074°08'0 0.0
2014-Oct-24 19:31N 40°41' W 074°08'0 0.0
2014-Oct-24 18:31N 40°41' W 074°08'0 0.0
2014-Oct-24 17:28N 40°41' W 074°08'0 0.0
2014-Oct-24 16:31N 40°41' W 074°08'0 0.0
2014-Oct-24 15:28N 40°41' W 074°08'0 0.0
2014-Oct-24 14:31N 40°41' W 074°08'0 0.0
2014-Oct-24 13:31N 40°41' W 074°08'0 0.0
2014-Oct-24 12:28N 40°41' W 074°08'0 0.0
2014-Oct-24 11:31N 40°41' W 074°08'1 0.8
2014-Oct-24 10:33N 40°41' W 074°08'2 2.1
2014-Oct-24 09:33N 40°39' W 074°08'5 4.8
2014-Oct-24 08:33N 40°36' W 074°02'1212.0
2014-Oct-24 07:34N 40°28' W 073°51'5 4.4
2014-Oct-24 06:30N 40°24' W 073°47'2 2.3
2014-Oct-24 05:29N 40°22' W 073°46'28 4.6
2014-Oct-23 23:23N 39°54' W 073°42'6 7.3
2014-Oct-23 22:32N 39°48' W 073°41'9 8.3
2014-Oct-23 21:28N 39°39' W 073°39'9 9.0
2014-Oct-23 20:30N 39°31' W 073°40'10 9.0
2014-Oct-23 19:23N 39°21' W 073°43'2211.3
2014-Oct-23 17:28N 38°59' W 073°49'  
Track history (hours):
 
Tides and Currents Weather Stations Pressure Air Temp Water Temp Dewpoint Dewpoint Depression Visibility Wind Speed Wind Dir Waves Ship Positions

New Nada

Last reported at 2014-Oct-25 04:32 UTC. Time now 2014-Nov-24 16:04 UTC.
Position N 39°21' W 073°51'.
Warning: this ship's position is 30 days out of date.

Length 180 m; beam 32.2 m.

Type: Cargo ship. MMSI: 356005000.

Date/timePositionNaut miles runAvg speedWind from/ knotsBaromVisibWave heightAir tempDewpointWater temp
2014-Oct-25 04:32N 39°21' W 073°51'1818.0
2014-Oct-25 03:33N 39°39' W 073°51'1817.8
2014-Oct-25 02:33N 39°57' W 073°50'1917.4
2014-Oct-25 01:29N 40°15' W 073°49'1213.1
2014-Oct-25 00:33N 40°27' W 073°50'1212.4
2014-Oct-24 23:33N 40°36' W 074°03'6 6.0
2014-Oct-24 22:33N 40°39' W 074°09'2 2.1
2014-Oct-24 21:31N 40°41' W 074°08'0 0.0
2014-Oct-24 20:31N 40°41' W 074°08'0 0.0
2014-Oct-24 19:31N 40°41' W 074°08'0 0.0
2014-Oct-24 18:31N 40°41' W 074°08'0 0.0
2014-Oct-24 17:28N 40°41' W 074°08'0 0.0
2014-Oct-24 16:31N 40°41' W 074°08'0 0.0
2014-Oct-24 15:28N 40°41' W 074°08'0 0.0
2014-Oct-24 14:31N 40°41' W 074°08'0 0.0
2014-Oct-24 13:31N 40°41' W 074°08'0 0.0
2014-Oct-24 12:28N 40°41' W 074°08'0 0.0
2014-Oct-24 11:31N 40°41' W 074°08'1 0.8
2014-Oct-24 10:33N 40°41' W 074°08'2 2.1
2014-Oct-24 09:33N 40°39' W 074°08'5 4.8
2014-Oct-24 08:33N 40°36' W 074°02'1212.0
2014-Oct-24 07:34N 40°28' W 073°51'5 4.4
2014-Oct-24 06:30N 40°24' W 073°47'2 2.3
2014-Oct-24 05:29N 40°22' W 073°46'28 4.6
2014-Oct-23 23:23N 39°54' W 073°42'6 7.3
2014-Oct-23 22:32N 39°48' W 073°41'9 8.3
2014-Oct-23 21:28N 39°39' W 073°39'9 9.0
2014-Oct-23 20:30N 39°31' W 073°40'10 9.0
2014-Oct-23 19:23N 39°21' W 073°43'2211.3
2014-Oct-23 17:28N 38°59' W 073°49'  

Dump ship's entire track history